createdAt,value
2018-11-20T06:41:26.729Z,19.00
2018-11-20T06:56:26.990Z,18.10
2018-11-20T07:02:04.017Z,18.20
2018-11-20T07:04:49.689Z,17.90
2018-11-20T07:07:42.029Z,16.87
2018-11-20T07:10:19.420Z,18.67
2018-11-20T07:13:04.903Z,17.47
2018-11-20T07:15:51.970Z,17.10
2018-11-20T07:18:53.854Z,16.37
2018-11-20T07:21:29.918Z,16.50
2018-11-20T07:24:30.408Z,16.17
2018-11-20T07:27:08.244Z,16.67
2018-11-20T07:30:01.527Z,16.07
2018-11-20T07:32:47.029Z,16.10
2018-11-20T07:35:35.431Z,15.87
2018-11-20T07:38:20.902Z,15.87
2018-11-20T07:41:03.524Z,17.67
2018-11-20T07:43:53.565Z,16.17
2018-11-20T07:46:29.890Z,15.97
2018-11-20T07:49:31.923Z,13.67
2018-11-20T07:52:17.189Z,15.07
2018-11-20T07:55:02.671Z,15.70
2018-11-20T07:57:43.942Z,15.30
2018-11-20T08:00:34.045Z,14.53
2018-11-20T08:03:20.988Z,14.93
2018-11-20T08:06:06.601Z,14.47
2018-11-20T08:08:42.346Z,14.43
2018-11-20T08:11:25.578Z,13.83
2018-11-20T08:14:18.473Z,14.30
2018-11-20T08:17:03.687Z,13.37
2018-11-20T08:19:49.271Z,13.83
2018-11-20T08:22:51.363Z,13.43
2018-11-20T08:25:41.460Z,13.73
2018-11-20T08:28:26.988Z,14.33
2018-11-20T08:31:12.280Z,15.20
2018-11-20T08:33:57.753Z,14.90
2018-11-20T08:36:34.285Z,15.57
2018-11-20T08:39:19.740Z,15.97
2018-11-20T08:42:01.152Z,15.87
2018-11-20T08:44:46.322Z,15.67
2018-11-20T08:47:31.813Z,15.63
2018-11-20T08:50:27.777Z,16.73
2018-11-20T08:53:13.645Z,16.77
2018-11-20T08:55:51.676Z,15.97
2018-11-20T08:58:27.357Z,16.27
2018-11-20T09:01:12.537Z,17.97
2018-11-20T09:03:59.739Z,16.90
2018-11-20T09:06:52.353Z,16.73
2018-11-20T09:09:46.568Z,16.20
2018-11-20T09:12:47.787Z,16.17
2018-11-20T09:15:33.111Z,18.07
2018-11-20T09:18:29.518Z,16.73
2018-11-20T09:21:15.415Z,15.90
2018-11-20T09:24:05.173Z,16.77
2018-11-20T09:26:46.978Z,15.43
2018-11-20T09:29:39.799Z,16.83
2018-11-20T09:32:25.760Z,16.27
2018-11-20T09:35:01.903Z,15.90
2018-11-20T09:37:48.074Z,17.17
2018-11-20T09:40:59.164Z,16.00
2018-11-20T09:43:59.851Z,15.53
2018-11-20T09:46:45.582Z,15.27
2018-11-20T09:49:30.999Z,15.83
2018-11-20T09:52:16.677Z,15.27
2018-11-20T09:55:09.437Z,17.30
2018-11-20T09:58:08.473Z,16.20
2018-11-20T10:00:55.636Z,16.40
2018-11-20T10:03:40.870Z,16.03
2018-11-20T10:06:33.701Z,15.50
2018-11-20T10:09:19.483Z,15.37
2018-11-20T10:11:58.392Z,16.73
2018-11-20T10:14:51.759Z,14.77
2018-11-20T10:17:37.397Z,14.47
2018-11-20T10:20:17.384Z,16.07
2018-11-20T10:22:58.889Z,14.17
2018-11-20T10:25:47.647Z,14.27
2018-11-20T10:28:32.997Z,13.87
2018-11-20T10:31:37.972Z,13.93
2018-11-20T10:34:31.226Z,13.03
2018-11-20T10:37:10.942Z,14.27
2018-11-20T10:39:51.296Z,12.93
2018-11-20T10:42:43.727Z,12.27
2018-11-20T10:45:39.380Z,11.47
2018-11-20T10:48:35.216Z,11.83
2018-11-20T10:51:24.557Z,10.93
2018-11-20T10:54:17.369Z,10.30
2018-11-20T10:57:03.197Z,12.17
2018-11-20T10:59:48.778Z,10.47
2018-11-20T11:02:34.366Z,9.47
2018-11-20T11:05:19.879Z,9.03
2018-11-20T11:08:05.461Z,8.83
2018-11-20T11:10:50.982Z,8.97
2018-11-20T11:13:36.499Z,8.37
2018-11-20T11:16:29.437Z,9.10
2018-11-20T11:19:22.101Z,9.97
2018-11-20T11:22:09.059Z,9.10
2018-11-20T11:25:07.772Z,9.30
2018-11-20T11:27:52.972Z,9.43
2018-11-20T11:30:40.120Z,9.87
2018-11-20T11:33:30.031Z,9.60
2018-11-20T11:36:16.971Z,9.30
2018-11-20T11:39:03.854Z,8.20
2018-11-20T11:41:42.298Z,9.53
2018-11-20T11:44:35.742Z,8.77
2018-11-20T11:47:35.644Z,8.27
2018-11-20T11:50:21.215Z,10.00
2018-11-20T11:53:13.993Z,9.50
2018-11-20T11:55:59.787Z,9.27
2018-11-20T11:58:45.167Z,8.90
2018-11-20T12:01:24.672Z,9.57
2018-11-20T12:06:48.823Z,9.33
2018-11-20T12:09:41.589Z,9.90
2018-11-20T12:12:27.086Z,9.40
2018-11-20T12:15:32.002Z,10.17
2018-11-20T12:18:14.380Z,9.77
2018-11-20T12:21:07.117Z,10.30
2018-11-20T12:23:55.052Z,10.40
2018-11-20T12:26:40.770Z,10.30
2018-11-20T12:29:27.817Z,10.23
2018-11-20T12:32:20.610Z,9.77
2018-11-20T12:35:07.541Z,9.57
2018-11-20T12:38:01.151Z,10.43
2018-11-20T12:40:50.832Z,10.87
2018-11-20T12:43:35.666Z,10.37
2018-11-20T12:46:25.541Z,9.73
2018-11-20T12:49:12.490Z,9.53
2018-11-20T12:51:59.406Z,10.27
2018-11-20T12:54:52.322Z,8.87
2018-11-20T12:57:34.117Z,10.33
2018-11-20T13:00:18.669Z,10.10
2018-11-20T13:03:08.921Z,9.57
2018-11-20T13:05:55.894Z,10.17
2018-11-20T13:08:42.846Z,9.83
2018-11-20T13:11:20.988Z,10.43
2018-11-20T13:14:07.937Z,10.77
2018-11-20T13:16:45.314Z,10.43
2018-11-20T13:19:41.264Z,9.83
2018-11-20T13:22:26.559Z,8.97
2018-11-20T13:25:11.989Z,9.00
2018-11-20T13:27:50.989Z,9.63
2018-11-20T13:30:41.237Z,9.57
2018-11-20T13:33:28.952Z,8.77
2018-11-20T13:36:13.916Z,8.50
2018-11-20T13:39:03.000Z,7.97
2018-11-20T13:41:56.915Z,8.90
2018-11-20T13:44:51.979Z,8.20
2018-11-20T13:47:32.038Z,8.83
2018-11-20T13:50:27.604Z,7.70
2018-11-20T13:53:12.826Z,8.07
2018-11-20T13:55:51.878Z,8.27
2018-11-20T13:58:41.371Z,8.00
2018-11-20T14:01:30.881Z,8.13
2018-11-20T14:04:23.822Z,8.90
2018-11-20T14:07:22.557Z,7.90
2018-11-20T14:10:09.213Z,8.77
2018-11-20T14:12:55.350Z,9.03
2018-11-20T14:15:37.921Z,8.10
2018-11-20T14:18:23.993Z,8.23
2018-11-20T14:21:13.985Z,8.03
2018-11-20T14:24:03.333Z,8.03
2018-11-20T14:26:41.580Z,7.73
2018-11-20T14:29:34.646Z,8.77
2018-11-20T14:32:18.973Z,8.27
2018-11-20T14:35:12.813Z,9.70
2018-11-20T14:37:58.117Z,9.47
2018-11-20T14:40:50.783Z,10.40
2018-11-20T14:43:32.328Z,10.40
2018-11-20T14:46:17.990Z,11.17
2018-11-20T14:49:03.394Z,10.33
2018-11-20T14:51:56.219Z,12.07
2018-11-20T14:54:36.634Z,10.93
2018-11-20T14:57:21.888Z,11.17
2018-11-20T15:00:10.055Z,11.27
2018-11-20T15:02:55.660Z,11.07
2018-11-20T15:05:41.104Z,11.43
2018-11-20T15:08:28.043Z,12.23
2018-11-20T15:11:27.071Z,11.87
2018-11-20T15:14:07.069Z,11.00
2018-11-20T15:16:52.497Z,11.50
2018-11-20T15:19:38.510Z,11.53
2018-11-20T15:22:25.707Z,11.97
2018-11-20T15:25:18.747Z,12.33
2018-11-20T15:28:08.306Z,12.70
2018-11-20T15:30:49.534Z,12.23
2018-11-20T15:33:45.470Z,12.33
2018-11-20T15:36:42.472Z,12.67
2018-11-20T15:39:29.676Z,12.70
2018-11-20T15:42:28.876Z,11.63
2018-11-20T15:45:10.395Z,12.80
2018-11-20T15:47:56.417Z,12.47
2018-11-20T15:50:58.148Z,12.10
2018-11-20T15:53:45.083Z,12.20
2018-11-20T15:56:30.515Z,11.27
2018-11-20T15:59:12.105Z,12.53
2018-11-20T16:01:48.838Z,11.53
2018-11-20T16:04:35.782Z,12.47
2018-11-20T16:07:28.888Z,12.43
2018-11-20T16:10:23.768Z,12.90
2018-11-20T16:13:14.029Z,12.17
2018-11-20T16:16:18.773Z,16.13
2018-11-20T16:18:58.263Z,17.48
2018-11-20T16:21:36.598Z,15.50
2018-11-20T16:24:22.319Z,14.40
2018-11-20T16:27:07.826Z,16.03
2018-11-20T16:30:03.778Z,15.07
2018-11-20T16:33:01.746Z,15.23
2018-11-20T16:35:51.922Z,16.10
2018-11-20T16:38:42.166Z,17.83
2018-11-20T16:41:29.131Z,15.37
2018-11-20T16:44:27.850Z,18.10
2018-11-20T16:48:04.373Z,18.00
2018-11-20T18:17:43.317Z,19.63
2018-11-20T19:02:30.630Z,20.30
2018-11-20T19:05:11.008Z,25.50
2018-11-20T19:08:03.109Z,28.27
2018-11-20T19:10:49.667Z,25.77
2018-11-20T19:13:41.914Z,28.83
2018-11-20T19:16:37.052Z,25.93
2018-11-20T19:19:23.155Z,24.30
2018-11-20T19:22:26.935Z,23.20
2018-11-20T19:25:10.517Z,22.87
2018-11-20T19:28:04.159Z,22.40
2018-11-20T19:30:50.616Z,21.70
2018-11-20T19:33:37.076Z,24.47
2018-11-20T19:36:38.998Z,23.70
2018-11-20T19:39:28.128Z,23.83
2018-11-20T19:42:12.889Z,24.27
2018-11-20T19:45:05.454Z,25.30
2018-11-20T19:47:50.382Z,25.67
2018-11-20T19:50:57.921Z,43.90
2018-11-20T19:53:37.805Z,29.47
2018-11-20T19:56:23.272Z,25.87
2018-11-20T19:59:13.894Z,22.40
2018-11-20T20:02:00.356Z,21.40
2018-11-20T20:04:54.188Z,20.53
2018-11-20T20:07:38.826Z,21.83
2018-11-20T20:10:30.816Z,21.43
2018-11-20T20:13:13.908Z,22.90
2018-11-20T20:15:59.329Z,22.17
2018-11-20T20:18:40.647Z,23.10
2018-11-20T20:21:27.151Z,22.93
2018-11-20T20:24:01.254Z,22.43
2018-11-20T20:26:45.314Z,22.57
2018-11-20T20:29:34.982Z,22.43
2018-11-20T20:32:24.473Z,21.27
2018-11-20T20:35:15.260Z,21.37
2018-11-20T20:38:04.616Z,22.17
2018-11-20T20:40:47.961Z,21.67
2018-11-20T20:43:37.227Z,20.43
2018-11-20T20:46:22.660Z,21.23
2018-11-20T20:49:15.159Z,21.10
2018-11-20T20:51:59.816Z,20.57
2018-11-20T20:54:49.783Z,21.83
2018-11-20T20:57:48.188Z,21.90
2018-11-20T21:00:35.178Z,21.83
2018-11-20T21:03:22.825Z,21.10
2018-11-20T21:06:03.204Z,23.57
2018-11-20T21:08:53.593Z,23.07
2018-11-20T21:11:40.055Z,26.03
2018-11-20T21:14:18.447Z,26.37
2018-11-20T21:17:08.060Z,27.77
2018-11-20T21:20:03.379Z,27.77
2018-11-20T21:22:52.933Z,28.97
2018-11-20T21:25:38.089Z,26.47
2018-11-20T21:28:42.763Z,26.53
2018-11-20T21:31:27.636Z,25.33
2018-11-20T21:34:12.958Z,27.93
2018-11-20T21:36:58.464Z,28.07
2018-11-20T21:39:56.978Z,26.57
2018-11-20T21:42:46.484Z,25.70
2018-11-20T21:45:29.748Z,26.43
2018-11-20T21:48:22.345Z,26.30
2018-11-20T21:51:11.409Z,24.70
2018-11-20T21:54:00.938Z,26.00
2018-11-20T21:56:37.898Z,27.33
2018-11-20T21:59:26.599Z,27.03
2018-11-20T22:02:15.919Z,26.20
2018-11-20T22:04:57.211Z,24.13
2018-11-20T22:07:43.671Z,23.83
2018-11-20T22:10:28.474Z,23.93
2018-11-20T22:13:13.661Z,23.57
2018-11-20T22:15:58.994Z,27.63
2018-11-20T22:18:39.390Z,29.70
2018-11-20T22:21:24.621Z,28.20
2018-11-20T22:24:23.374Z,26.20
2018-11-20T22:27:08.902Z,23.67
2018-11-20T22:29:54.080Z,26.70
2018-11-20T22:32:31.503Z,25.57
2018-11-20T22:35:16.698Z,24.53
2018-11-20T22:37:49.662Z,23.03
2018-11-20T22:40:42.123Z,25.07
2018-11-20T22:43:37.487Z,23.63
2018-11-20T22:46:33.219Z,25.03
2018-11-20T22:49:28.561Z,23.70
2018-11-20T22:52:20.652Z,24.27
2018-11-20T22:55:19.514Z,23.10
2018-11-20T22:58:13.023Z,23.83
2018-11-20T23:00:50.223Z,22.40
2018-11-20T23:03:48.656Z,24.20
2018-11-20T23:06:34.382Z,21.13
2018-11-20T23:09:01.210Z,22.37
2018-11-20T23:11:28.121Z,24.37
2018-11-20T23:13:55.031Z,21.40
2018-11-20T23:16:21.955Z,21.80
2018-11-20T23:18:48.873Z,23.20
2018-11-20T23:21:15.801Z,22.70
2018-11-20T23:23:42.597Z,21.83
2018-11-20T23:26:09.409Z,21.37
2018-11-20T23:28:36.213Z,23.57
2018-11-20T23:31:03.032Z,21.83
2018-11-20T23:33:29.829Z,21.03
2018-11-20T23:35:56.639Z,21.63
2018-11-20T23:38:23.442Z,20.43
2018-11-20T23:40:50.247Z,18.80
2018-11-20T23:43:17.042Z,21.47
2018-11-20T23:45:43.967Z,21.37
2018-11-20T23:48:10.778Z,20.87
2018-11-20T23:50:38.077Z,25.47
2018-11-20T23:53:04.897Z,24.23
2018-11-20T23:55:31.706Z,23.00
2018-11-20T23:57:58.495Z,22.07
